createdAt,value
2022-09-12T00:01:13.015Z,100.00
2022-09-12T00:03:39.849Z,100.00
2022-09-12T00:06:11.876Z,100.00
2022-09-12T00:08:38.971Z,100.00
2022-09-12T00:11:08.067Z,100.00
2022-09-12T00:13:39.511Z,100.00
2022-09-12T00:16:08.041Z,100.00
2022-09-12T00:18:34.728Z,100.00
2022-09-12T00:21:05.372Z,100.00
2022-09-12T00:23:33.367Z,100.00
2022-09-12T00:26:00.044Z,100.00
2022-09-12T00:28:27.154Z,100.00
2022-09-12T00:30:53.965Z,100.00
2022-09-12T00:33:20.667Z,100.00
2022-09-12T00:35:50.233Z,100.00
2022-09-12T00:38:17.667Z,100.00
2022-09-12T00:40:44.330Z,100.00
2022-09-12T00:43:31.147Z,100.00
2022-09-12T00:45:59.084Z,100.00
2022-09-12T00:48:33.960Z,100.00
2022-09-12T00:51:01.972Z,100.00
2022-09-12T00:53:28.853Z,100.00
2022-09-12T00:55:56.744Z,100.00
2022-09-12T00:58:28.125Z,100.00
2022-09-12T01:00:54.845Z,100.00
2022-09-12T01:03:24.085Z,100.00
2022-09-12T01:06:08.680Z,100.00
2022-09-12T01:08:37.756Z,100.00
2022-09-12T01:11:05.929Z,100.00
2022-09-12T01:13:35.340Z,100.00
2022-09-12T01:16:04.222Z,100.00
2022-09-12T01:19:02.638Z,100.00
2022-09-12T01:21:54.625Z,100.00
2022-09-12T01:24:26.978Z,100.00
2022-09-12T01:27:00.234Z,100.00
2022-09-12T01:29:59.474Z,100.00
2022-09-12T01:33:02.487Z,100.00
2022-09-12T01:35:41.658Z,100.00
2022-09-12T01:38:36.376Z,100.00
2022-09-12T01:41:25.015Z,100.00
2022-09-12T01:44:22.807Z,100.00
2022-09-12T01:47:14.097Z,100.00
2022-09-12T01:49:57.288Z,100.00
2022-09-12T01:52:32.443Z,100.00
2022-09-12T01:55:13.296Z,100.00
2022-09-12T01:57:46.397Z,100.00
2022-09-12T02:00:13.641Z,100.00
2022-09-12T02:03:03.058Z,100.00
2022-09-12T02:06:08.368Z,100.00
2022-09-12T02:08:45.350Z,100.00
2022-09-12T02:11:12.916Z,100.00
2022-09-12T02:13:42.243Z,100.00
2022-09-12T02:16:18.250Z,100.00
2022-09-12T02:18:50.109Z,100.00
2022-09-12T02:21:20.082Z,100.00
2022-09-12T02:23:50.814Z,100.00
2022-09-12T02:26:26.013Z,100.00
2022-09-12T02:28:52.483Z,100.00
2022-09-12T02:31:40.563Z,100.00
2022-09-12T02:34:17.174Z,100.00
2022-09-12T02:36:55.409Z,100.00
2022-09-12T02:39:21.985Z,100.00
2022-09-12T02:41:51.705Z,100.00
2022-09-12T02:44:19.095Z,100.00
2022-09-12T02:46:51.632Z,100.00
2022-09-12T02:49:18.214Z,100.00
2022-09-12T02:51:46.658Z,100.00
2022-09-12T02:54:14.736Z,100.00
2022-09-12T02:56:43.057Z,100.00
2022-09-12T02:59:13.132Z,100.00
2022-09-12T03:02:24.566Z,100.00
2022-09-12T03:05:23.316Z,100.00
2022-09-12T03:07:52.632Z,100.00
2022-09-12T03:10:41.927Z,100.00
2022-09-12T03:13:23.204Z,100.00
2022-09-12T03:16:12.328Z,100.00
2022-09-12T03:18:57.204Z,100.00
2022-09-12T03:21:41.286Z,100.00
2022-09-12T03:24:23.138Z,100.00
2022-09-12T03:27:05.445Z,100.00
2022-09-12T03:29:32.196Z,100.00
2022-09-12T03:31:59.066Z,100.00
2022-09-12T03:34:27.849Z,100.00
2022-09-12T03:36:58.224Z,100.00
2022-09-12T03:39:26.472Z,100.00
2022-09-12T03:41:54.257Z,100.00
2022-09-12T03:44:20.944Z,100.00
2022-09-12T03:46:47.726Z,100.00
2022-09-12T03:49:14.637Z,100.00
2022-09-12T03:51:41.370Z,100.00
2022-09-12T03:54:08.092Z,100.00
2022-09-12T03:56:36.201Z,100.00
2022-09-12T03:59:06.928Z,100.00
2022-09-12T04:01:34.408Z,100.00
2022-09-12T04:04:01.113Z,100.00
2022-09-12T04:06:27.758Z,100.00
2022-09-12T04:08:55.410Z,100.00
2022-09-12T04:11:23.263Z,100.00
2022-09-12T04:13:50.211Z,100.00
2022-09-12T04:16:17.894Z,100.00
2022-09-12T04:18:45.820Z,100.00
2022-09-12T04:21:15.982Z,100.00
2022-09-12T04:23:42.514Z,100.00
2022-09-12T04:26:10.225Z,100.00
2022-09-12T04:28:38.382Z,100.00
2022-09-12T04:31:08.126Z,100.00
2022-09-12T04:33:37.368Z,100.00
2022-09-12T04:36:09.253Z,100.00
2022-09-12T04:38:36.861Z,100.00
2022-09-12T04:41:13.785Z,100.00
2022-09-12T04:43:40.798Z,100.00
2022-09-12T04:46:08.996Z,100.00
2022-09-12T04:48:36.002Z,100.00
2022-09-12T04:51:21.140Z,100.00
2022-09-12T04:53:50.101Z,100.00
2022-09-12T04:56:17.110Z,100.00
2022-09-12T04:58:44.078Z,100.00
2022-09-12T05:01:15.669Z,100.00
2022-09-12T05:03:43.718Z,100.00
2022-09-12T05:06:19.239Z,100.00
2022-09-12T05:08:46.272Z,100.00
2022-09-12T05:11:22.728Z,100.00
2022-09-12T05:13:52.163Z,100.00
2022-09-12T05:16:20.226Z,100.00
2022-09-12T05:18:47.499Z,100.00
2022-09-12T05:21:16.900Z,100.00
2022-09-12T05:23:43.629Z,100.00
2022-09-12T05:26:15.606Z,100.00
2022-09-12T05:28:42.550Z,100.00
2022-09-12T05:31:14.608Z,100.00
2022-09-12T05:33:43.520Z,100.00
2022-09-12T05:36:13.063Z,100.00
2022-09-12T05:38:39.766Z,100.00
2022-09-12T05:41:16.949Z,100.00
2022-09-12T05:43:46.237Z,100.00
2022-09-12T05:46:15.320Z,100.00
2022-09-12T05:48:43.844Z,100.00
2022-09-12T05:51:13.425Z,100.00
2022-09-12T05:53:41.120Z,100.00
2022-09-12T05:56:13.577Z,100.00
2022-09-12T05:58:43.274Z,100.00
2022-09-12T06:01:12.366Z,100.00
2022-09-12T06:03:48.347Z,100.00
2022-09-12T06:06:17.225Z,100.00
2022-09-12T06:08:45.708Z,100.00
2022-09-12T06:11:14.847Z,100.00
2022-09-12T06:13:43.225Z,100.00
2022-09-12T06:16:15.630Z,100.00
2022-09-12T06:18:47.250Z,100.00
2022-09-12T06:21:14.030Z,100.00
2022-09-12T06:23:41.019Z,100.00
2022-09-12T06:26:10.213Z,100.00
2022-09-12T06:28:39.082Z,100.00
2022-09-12T06:31:11.674Z,100.00
2022-09-12T06:33:49.402Z,100.00
2022-09-12T06:36:18.471Z,100.00
2022-09-12T06:38:48.928Z,100.00
2022-09-12T06:41:15.936Z,100.00
2022-09-12T06:43:43.259Z,100.00
2022-09-12T06:46:11.268Z,100.00
2022-09-12T06:48:41.747Z,100.00
2022-09-12T06:51:17.203Z,100.00
2022-09-12T06:53:45.455Z,100.00
2022-09-12T06:56:14.853Z,100.00
2022-09-12T06:58:42.762Z,100.00
2022-09-12T07:01:22.770Z,100.00
2022-09-12T07:03:51.720Z,100.00
2022-09-12T07:06:20.897Z,100.00
2022-09-12T07:08:47.846Z,100.00
2022-09-12T07:11:20.317Z,100.00
2022-09-12T07:13:49.781Z,100.00
2022-09-12T07:16:19.733Z,97.23
2022-09-12T07:18:55.044Z,97.68
2022-09-12T07:21:22.782Z,97.67
2022-09-12T07:23:49.686Z,94.43
2022-09-12T07:26:16.740Z,91.51
2022-09-12T07:28:43.696Z,91.91
2022-09-12T07:31:16.104Z,89.98
2022-09-12T07:33:43.606Z,88.78
2022-09-12T07:36:16.384Z,88.76
2022-09-12T07:38:44.162Z,84.74
2022-09-12T07:41:15.583Z,85.14
2022-09-12T07:43:42.168Z,85.37
2022-09-12T07:46:09.610Z,83.30
2022-09-12T07:48:36.947Z,81.81
2022-09-12T07:51:09.107Z,80.13
2022-09-12T07:53:41.297Z,79.41
2022-09-12T07:56:11.137Z,78.51
2022-09-12T07:58:39.431Z,77.82
2022-09-12T08:01:07.419Z,76.93
2022-09-12T08:03:34.353Z,76.35
2022-09-12T08:06:21.589Z,76.75
2022-09-12T08:08:49.077Z,76.34
2022-09-12T08:11:18.017Z,75.53
2022-09-12T08:13:45.824Z,75.14
2022-09-12T08:16:18.075Z,74.83
2022-09-12T08:18:44.783Z,74.39
2022-09-12T08:21:14.939Z,75.11
2022-09-12T08:23:42.823Z,76.54
2022-09-12T08:26:11.267Z,75.74
2022-09-12T08:28:40.217Z,74.23
2022-09-12T08:31:08.879Z,73.16
2022-09-12T08:33:35.497Z,72.00
2022-09-12T08:36:11.910Z,71.70
2022-09-12T08:38:40.993Z,72.67
2022-09-12T08:41:29.057Z,72.83
2022-09-12T08:44:04.771Z,71.32
2022-09-12T08:47:08.531Z,72.53
2022-09-12T08:49:44.491Z,68.97
2022-09-12T08:52:48.631Z,68.14
2022-09-12T08:55:22.067Z,68.21
2022-09-12T08:57:48.564Z,67.91
2022-09-12T09:00:16.978Z,66.65
2022-09-12T09:03:01.808Z,68.36
2022-09-12T09:05:45.909Z,68.33
2022-09-12T09:08:28.568Z,66.82
2022-09-12T09:11:24.150Z,66.21
2022-09-12T09:14:37.565Z,65.97
2022-09-12T09:17:11.919Z,66.60
2022-09-12T09:19:48.799Z,67.08
2022-09-12T09:22:36.559Z,65.21
2022-09-12T09:25:11.255Z,65.81
2022-09-12T09:27:46.622Z,66.54
2022-09-12T09:30:16.050Z,63.70
2022-09-12T09:32:45.856Z,62.58
2022-09-12T09:35:22.706Z,63.18
2022-09-12T09:38:01.654Z,62.66
2022-09-12T09:40:50.149Z,63.33
2022-09-12T09:43:24.453Z,62.05
2022-09-12T09:45:52.409Z,61.56
2022-09-12T09:48:31.224Z,62.75
2022-09-12T09:51:00.542Z,64.03
2022-09-12T09:53:43.213Z,65.92
2022-09-12T09:56:15.652Z,67.36
2022-09-12T09:58:42.156Z,64.48
2022-09-12T10:01:17.466Z,68.00
2022-09-12T10:03:52.951Z,68.04
2022-09-12T10:06:19.462Z,64.94
2022-09-12T10:08:47.959Z,62.71
2022-09-12T10:11:23.233Z,61.92
2022-09-12T10:13:58.140Z,62.95
2022-09-12T10:16:27.849Z,62.36
2022-09-12T10:18:57.321Z,61.60
2022-09-12T10:21:28.066Z,62.34
2022-09-12T10:24:05.323Z,63.02
2022-09-12T10:26:36.008Z,61.57
2022-09-12T10:29:13.564Z,59.74
2022-09-12T10:31:47.664Z,59.23
2022-09-12T10:34:31.868Z,58.76
2022-09-12T10:37:07.701Z,58.14
2022-09-12T10:39:36.243Z,59.39
2022-09-12T10:42:04.305Z,58.86
2022-09-12T10:44:33.591Z,57.29
2022-09-12T10:47:19.681Z,59.44
2022-09-12T10:49:47.478Z,59.05
2022-09-12T10:52:28.589Z,60.33
2022-09-12T10:54:55.283Z,59.84
2022-09-12T10:57:54.119Z,58.65
2022-09-12T11:00:28.438Z,57.01
2022-09-12T11:03:25.211Z,57.06
2022-09-12T11:06:00.850Z,56.85
2022-09-12T11:08:42.322Z,56.79
2022-09-12T11:11:27.262Z,56.60
2022-09-12T11:14:11.429Z,55.51
2022-09-12T11:16:59.179Z,54.14
2022-09-12T11:19:59.606Z,53.89
2022-09-12T11:22:45.563Z,54.44
2022-09-12T11:25:32.337Z,54.45
2022-09-12T11:28:26.063Z,54.94
2022-09-12T11:31:13.715Z,54.52
2022-09-12T11:33:48.073Z,55.82
2022-09-12T11:36:20.693Z,54.05
2022-09-12T11:39:14.990Z,54.84
2022-09-12T11:41:45.469Z,55.00
2022-09-12T11:44:18.533Z,54.64
2022-09-12T11:46:48.760Z,55.20
2022-09-12T11:49:35.281Z,54.50
2022-09-12T11:52:22.928Z,53.84
2022-09-12T11:55:19.468Z,53.96
2022-09-12T11:57:53.026Z,56.01
2022-09-12T12:00:20.857Z,55.26
2022-09-12T12:03:05.278Z,55.61
2022-09-12T12:05:41.381Z,56.78
2022-09-12T12:08:09.663Z,56.88
2022-09-12T12:10:48.649Z,56.88
2022-09-12T12:13:33.609Z,55.21
2022-09-12T12:16:08.224Z,56.63
2022-09-12T12:18:38.780Z,56.76
2022-09-12T12:21:37.621Z,55.76
2022-09-12T12:24:09.979Z,55.18
2022-09-12T12:26:39.500Z,56.47
2022-09-12T12:29:18.205Z,57.62
2022-09-12T12:32:07.969Z,56.34
2022-09-12T12:34:42.881Z,57.24
2022-09-12T12:37:29.764Z,56.48
2022-09-12T12:40:01.168Z,56.45
2022-09-12T12:42:56.198Z,56.97
2022-09-12T12:45:25.351Z,56.75
2022-09-12T12:48:09.645Z,56.97
2022-09-12T12:50:36.260Z,57.67
2022-09-12T12:53:24.301Z,57.81
2022-09-12T12:55:54.721Z,59.33
2022-09-12T12:58:41.230Z,59.32
2022-09-12T13:01:13.978Z,58.95
2022-09-12T13:04:04.220Z,58.77
2022-09-12T13:06:43.302Z,58.45
2022-09-12T13:09:24.576Z,57.84
2022-09-12T13:12:05.292Z,57.18
2022-09-12T13:14:37.229Z,58.12
2022-09-12T13:17:14.304Z,59.43
2022-09-12T13:19:41.535Z,60.42
2022-09-12T13:22:10.352Z,60.98
2022-09-12T13:24:44.744Z,61.25
2022-09-12T13:27:25.772Z,61.29
2022-09-12T13:30:14.564Z,60.99
2022-09-12T13:32:43.935Z,61.23
2022-09-12T13:35:19.766Z,60.38
2022-09-12T13:38:03.274Z,59.75
2022-09-12T13:40:51.940Z,60.47
2022-09-12T13:43:30.545Z,60.81
2022-09-12T13:45:57.252Z,60.02
2022-09-12T13:48:25.797Z,60.69
2022-09-12T13:51:02.266Z,60.88
2022-09-12T13:53:48.017Z,61.63
2022-09-12T13:56:19.874Z,61.86
2022-09-12T13:58:58.159Z,62.23
2022-09-12T14:01:38.261Z,62.41
2022-09-12T14:04:34.710Z,61.81
2022-09-12T14:07:03.764Z,62.33
2022-09-12T14:09:38.564Z,62.64
2022-09-12T14:12:19.232Z,62.32
2022-09-12T14:14:48.937Z,62.73
2022-09-12T14:17:18.941Z,63.18
2022-09-12T14:19:49.357Z,63.34
2022-09-12T14:22:18.032Z,64.21
2022-09-12T14:24:50.130Z,63.50
2022-09-12T14:27:26.817Z,64.77
2022-09-12T14:30:01.095Z,63.66
2022-09-12T14:32:27.810Z,64.51
2022-09-12T14:35:06.411Z,66.03
2022-09-12T14:37:32.947Z,67.02
2022-09-12T14:40:00.355Z,66.39
2022-09-12T14:42:31.266Z,66.28
2022-09-12T14:45:02.632Z,66.67
2022-09-12T14:47:40.705Z,67.27
2022-09-12T14:50:21.967Z,67.88
2022-09-12T14:53:03.068Z,68.07
2022-09-12T14:55:32.092Z,68.17
2022-09-12T14:58:28.312Z,68.52
2022-09-12T15:01:23.646Z,68.41
2022-09-12T15:03:55.063Z,68.51
2022-09-12T15:06:36.261Z,69.07
2022-09-12T15:09:08.423Z,70.10
2022-09-12T15:11:34.899Z,70.44
2022-09-12T15:14:13.667Z,69.78
2022-09-12T15:16:40.115Z,70.35
2022-09-12T15:19:06.633Z,70.13
2022-09-12T15:21:33.262Z,71.43
2022-09-12T15:23:59.732Z,69.81
2022-09-12T15:26:30.566Z,70.21
2022-09-12T15:28:57.532Z,70.24
2022-09-12T15:31:29.252Z,71.03
2022-09-12T15:33:57.550Z,70.59
2022-09-12T15:36:25.872Z,71.44
2022-09-12T15:38:53.585Z,71.87
2022-09-12T15:41:40.356Z,71.06
2022-09-12T15:44:10.794Z,72.44
2022-09-12T15:46:37.498Z,70.74
2022-09-12T15:49:04.320Z,70.28
2022-09-12T15:51:30.945Z,71.01
2022-09-12T15:53:57.393Z,70.24
2022-09-12T15:56:23.937Z,70.81
2022-09-12T15:58:58.848Z,70.29
2022-09-12T16:01:26.679Z,71.23
2022-09-12T16:03:53.282Z,71.04
2022-09-12T16:06:19.786Z,71.53
2022-09-12T16:08:46.313Z,71.77
2022-09-12T16:11:22.080Z,70.95
2022-09-12T16:13:49.145Z,71.06
2022-09-12T16:16:15.710Z,71.26
2022-09-12T16:18:42.371Z,71.47
2022-09-12T16:21:12.787Z,71.93
2022-09-12T16:23:46.163Z,72.03
2022-09-12T16:26:12.965Z,72.38
2022-09-12T16:28:40.003Z,71.94
2022-09-12T16:31:08.521Z,71.84
2022-09-12T16:33:35.328Z,72.25
2022-09-12T16:36:07.624Z,72.82
2022-09-12T16:38:34.765Z,72.75
2022-09-12T16:41:07.039Z,72.60
2022-09-12T16:43:34.801Z,73.01
2022-09-12T16:46:06.997Z,73.87
2022-09-12T16:48:34.539Z,73.81
2022-09-12T16:51:04.683Z,73.90
2022-09-12T16:53:33.241Z,74.22
2022-09-12T16:56:00.181Z,74.16
2022-09-12T16:58:27.206Z,74.57
2022-09-12T17:01:08.995Z,74.99
2022-09-12T17:03:36.262Z,75.21
2022-09-12T17:06:12.076Z,75.55
2022-09-12T17:08:41.482Z,75.82
2022-09-12T17:11:14.165Z,76.17
2022-09-12T17:14:03.258Z,76.48
2022-09-12T17:16:29.417Z,76.60
2022-09-12T17:18:56.251Z,77.46
2022-09-12T17:21:23.035Z,77.58
2022-09-12T17:23:49.877Z,77.88
2022-09-12T17:26:16.782Z,79.25
2022-09-12T17:28:43.956Z,78.88
2022-09-12T17:31:13.184Z,80.00
2022-09-12T17:33:40.572Z,80.21
2022-09-12T17:36:11.149Z,80.33
2022-09-12T17:38:39.792Z,80.88
2022-09-12T17:41:06.297Z,81.50
2022-09-12T17:43:33.483Z,82.04
2022-09-12T17:46:00.157Z,82.26
2022-09-12T17:48:27.328Z,82.61
2022-09-12T17:50:54.476Z,82.76
2022-09-12T17:53:21.262Z,83.06
2022-09-12T17:55:51.457Z,84.24
2022-09-12T17:58:20.441Z,84.68
2022-09-12T18:01:05.570Z,84.35
2022-09-12T18:03:32.270Z,84.67
2022-09-12T18:05:58.798Z,85.24
2022-09-12T18:08:25.444Z,85.13
2022-09-12T18:10:52.441Z,85.43
2022-09-12T18:13:19.092Z,85.81
2022-09-12T18:15:45.741Z,85.38
2022-09-12T18:18:12.351Z,86.38
2022-09-12T18:20:40.275Z,87.12
2022-09-12T18:23:06.692Z,86.99
2022-09-12T18:25:33.159Z,87.47
2022-09-12T18:27:59.659Z,86.59
2022-09-12T18:30:26.113Z,87.08
2022-09-12T18:32:53.333Z,87.54
2022-09-12T18:35:19.998Z,87.59
2022-09-12T18:37:46.543Z,88.19
2022-09-12T18:40:13.476Z,88.01
2022-09-12T18:42:40.077Z,87.94
2022-09-12T18:45:08.506Z,88.28
2022-09-12T18:47:35.132Z,87.96
2022-09-12T18:50:01.826Z,87.84
2022-09-12T18:52:28.456Z,88.07
2022-09-12T18:54:54.999Z,87.86
2022-09-12T18:57:21.477Z,88.37
2022-09-12T18:59:48.087Z,88.13
2022-09-12T19:02:17.496Z,88.23
2022-09-12T19:04:44.405Z,87.69
2022-09-12T19:07:10.936Z,87.86
2022-09-12T19:09:37.578Z,88.01
2022-09-12T19:12:04.465Z,87.35
2022-09-12T19:14:31.184Z,87.96
2022-09-12T19:16:57.803Z,87.98
2022-09-12T19:19:24.484Z,87.70
2022-09-12T19:21:51.253Z,88.08
2022-09-12T19:24:18.202Z,88.06
2022-09-12T19:26:45.155Z,88.40
2022-09-12T19:29:12.032Z,88.44
2022-09-12T19:31:38.579Z,88.41
2022-09-12T19:34:06.859Z,88.61
2022-09-12T19:36:44.997Z,87.98
2022-09-12T19:39:13.207Z,87.89
2022-09-12T19:41:39.757Z,87.72
2022-09-12T19:44:06.311Z,86.65
2022-09-12T19:46:33.045Z,86.25
2022-09-12T19:48:59.877Z,87.76
2022-09-12T19:51:26.586Z,87.71
2022-09-12T19:53:53.594Z,88.15
2022-09-12T19:56:20.634Z,89.07
2022-09-12T19:58:52.278Z,88.89
2022-09-12T20:01:28.514Z,90.05
2022-09-12T20:03:56.626Z,90.11
2022-09-12T20:06:23.327Z,90.92
2022-09-12T20:08:50.681Z,92.31
2022-09-12T20:11:19.602Z,92.37
2022-09-12T20:13:47.448Z,91.66
2022-09-12T20:16:21.414Z,90.80
2022-09-12T20:18:53.780Z,91.66
2022-09-12T20:21:25.394Z,91.97
2022-09-12T20:23:52.334Z,92.54
2022-09-12T20:26:20.506Z,92.13
2022-09-12T20:28:47.465Z,91.92
2022-09-12T20:31:16.071Z,92.74
2022-09-12T20:33:43.306Z,92.20
2022-09-12T20:36:15.679Z,92.65
2022-09-12T20:38:48.937Z,92.72
2022-09-12T20:41:16.104Z,92.85
2022-09-12T20:43:42.853Z,92.13
2022-09-12T20:46:10.859Z,93.02
2022-09-12T20:48:39.032Z,93.15
2022-09-12T20:51:06.325Z,92.98
2022-09-12T20:53:35.195Z,92.16
2022-09-12T20:56:03.038Z,92.25
2022-09-12T20:58:29.754Z,92.81
2022-09-12T21:00:56.780Z,92.97
2022-09-12T21:03:23.456Z,93.32
2022-09-12T21:05:50.101Z,92.98
2022-09-12T21:08:16.893Z,93.25
2022-09-12T21:10:44.848Z,92.47
2022-09-12T21:13:12.463Z,93.38
2022-09-12T21:15:40.301Z,93.37
2022-09-12T21:18:07.394Z,93.89
2022-09-12T21:20:34.511Z,93.33
2022-09-12T21:23:01.351Z,94.05
2022-09-12T21:25:29.285Z,93.43
2022-09-12T21:27:56.024Z,93.47
2022-09-12T21:30:22.655Z,93.87
2022-09-12T21:32:49.312Z,93.80
2022-09-12T21:35:16.100Z,93.54
2022-09-12T21:37:42.681Z,93.41
2022-09-12T21:40:09.590Z,93.79
2022-09-12T21:42:36.231Z,94.51
2022-09-12T21:45:02.785Z,95.04
2022-09-12T21:47:29.253Z,95.29
2022-09-12T21:49:55.776Z,94.99
2022-09-12T21:52:22.240Z,95.30
2022-09-12T21:54:48.699Z,95.51
2022-09-12T21:57:15.704Z,95.09
2022-09-12T21:59:42.189Z,94.83
2022-09-12T22:02:08.929Z,94.52
2022-09-12T22:04:35.536Z,94.26
2022-09-12T22:07:02.171Z,94.00
2022-09-12T22:09:28.715Z,93.63
2022-09-12T22:11:55.937Z,93.71
2022-09-12T22:14:22.581Z,93.92
2022-09-12T22:16:49.544Z,94.45
2022-09-12T22:19:16.345Z,93.91
2022-09-12T22:22:03.110Z,93.55
2022-09-12T22:24:30.013Z,94.17
2022-09-12T22:26:57.684Z,93.95
2022-09-12T22:29:24.324Z,94.29
2022-09-12T22:31:50.892Z,94.34
2022-09-12T22:34:17.496Z,94.54
2022-09-12T22:36:44.722Z,95.01
2022-09-12T22:39:11.265Z,94.51
2022-09-12T22:41:37.947Z,94.86
2022-09-12T22:44:04.775Z,94.43
2022-09-12T22:46:31.360Z,94.48
2022-09-12T22:48:57.895Z,94.94
2022-09-12T22:51:24.465Z,95.63
2022-09-12T22:53:51.651Z,95.78
2022-09-12T22:56:18.998Z,95.33
2022-09-12T22:58:45.604Z,96.24
2022-09-12T23:01:12.314Z,96.46
2022-09-12T23:03:39.348Z,96.44
2022-09-12T23:06:06.285Z,96.53
2022-09-12T23:08:35.163Z,96.33
2022-09-12T23:11:04.267Z,95.97
2022-09-12T23:13:31.008Z,95.79
2022-09-12T23:16:01.368Z,95.99
2022-09-12T23:18:28.425Z,95.80
2022-09-12T23:21:00.254Z,95.37
2022-09-12T23:23:27.464Z,95.58
2022-09-12T23:26:08.158Z,95.76
2022-09-12T23:28:35.549Z,96.05
2022-09-12T23:31:02.903Z,95.93
2022-09-12T23:33:31.157Z,96.14
2022-09-12T23:36:02.500Z,96.07
2022-09-12T23:38:30.601Z,95.76
2022-09-12T23:40:57.724Z,95.06
2022-09-12T23:43:24.273Z,94.29
2022-09-12T23:45:50.962Z,94.70
2022-09-12T23:48:18.319Z,94.88
2022-09-12T23:50:46.705Z,95.11
2022-09-12T23:53:14.660Z,94.80
2022-09-12T23:55:41.769Z,94.49
2022-09-12T23:58:08.740Z,94.85
